sensor_id;sensor_type;location;lat;lon;timestamp;P1;durP1;ratioP1;P2;durP2;ratioP2
54123;SDS011;55741;53.252;5.788;2022-12-05T00:03:40;39.42;;;22.92;;
54123;SDS011;55741;53.252;5.788;2022-12-05T00:06:06;36.25;;;21.90;;
54123;SDS011;55741;53.252;5.788;2022-12-05T00:08:32;41.22;;;23.27;;
54123;SDS011;55741;53.252;5.788;2022-12-05T00:10:58;36.88;;;22.50;;
54123;SDS011;55741;53.252;5.788;2022-12-05T00:13:25;36.30;;;22.48;;
54123;SDS011;55741;53.252;5.788;2022-12-05T00:15:51;33.10;;;22.85;;
54123;SDS011;55741;53.252;5.788;2022-12-05T00:18:17;36.10;;;21.38;;
54123;SDS011;55741;53.252;5.788;2022-12-05T00:20:46;35.72;;;22.00;;
54123;SDS011;55741;53.252;5.788;2022-12-05T00:23:13;32.42;;;20.40;;
54123;SDS011;55741;53.252;5.788;2022-12-05T00:25:39;33.63;;;21.08;;
54123;SDS011;55741;53.252;5.788;2022-12-05T00:28:06;31.42;;;19.65;;
54123;SDS011;55741;53.252;5.788;2022-12-05T00:30:32;33.53;;;20.35;;
54123;SDS011;55741;53.252;5.788;2022-12-05T00:32:58;33.67;;;20.75;;
54123;SDS011;55741;53.252;5.788;2022-12-05T00:35:23;34.72;;;20.23;;
54123;SDS011;55741;53.252;5.788;2022-12-05T00:37:49;29.40;;;20.25;;
54123;SDS011;55741;53.252;5.788;2022-12-05T00:40:15;30.15;;;18.33;;
54123;SDS011;55741;53.252;5.788;2022-12-05T00:42:41;31.55;;;19.40;;
54123;SDS011;55741;53.252;5.788;2022-12-05T00:45:07;34.90;;;20.63;;
54123;SDS011;55741;53.252;5.788;2022-12-05T00:47:34;31.88;;;18.90;;
54123;SDS011;55741;53.252;5.788;2022-12-05T00:50:00;34.17;;;20.20;;
54123;SDS011;55741;53.252;5.788;2022-12-05T00:52:27;29.33;;;18.85;;
54123;SDS011;55741;53.252;5.788;2022-12-05T00:54:53;30.40;;;20.38;;
54123;SDS011;55741;53.252;5.788;2022-12-05T00:57:18;31.88;;;20.23;;
54123;SDS011;55741;53.252;5.788;2022-12-05T00:59:44;33.38;;;21.95;;
54123;SDS011;55741;53.252;5.788;2022-12-05T01:02:10;33.80;;;21.17;;
54123;SDS011;55741;53.252;5.788;2022-12-05T01:04:36;31.50;;;20.83;;
54123;SDS011;55741;53.252;5.788;2022-12-05T01:07:02;36.67;;;22.08;;
54123;SDS011;55741;53.252;5.788;2022-12-05T01:09:28;33.33;;;21.35;;
54123;SDS011;55741;53.252;5.788;2022-12-05T01:11:54;35.90;;;22.27;;
54123;SDS011;55741;53.252;5.788;2022-12-05T01:14:21;32.70;;;22.00;;
54123;SDS011;55741;53.252;5.788;2022-12-05T01:16:49;34.92;;;22.45;;
54123;SDS011;55741;53.252;5.788;2022-12-05T01:19:26;34.13;;;21.90;;
54123;SDS011;55741;53.252;5.788;2022-12-05T01:21:54;35.78;;;22.60;;
54123;SDS011;55741;53.252;5.788;2022-12-05T01:24:21;35.60;;;21.90;;
54123;SDS011;55741;53.252;5.788;2022-12-05T01:26:48;38.30;;;22.27;;
54123;SDS011;55741;53.252;5.788;2022-12-05T01:29:14;37.50;;;23.20;;
54123;SDS011;55741;53.252;5.788;2022-12-05T01:31:42;33.38;;;22.77;;
54123;SDS011;55741;53.252;5.788;2022-12-05T01:34:15;35.15;;;22.67;;
54123;SDS011;55741;53.252;5.788;2022-12-05T01:36:42;36.53;;;22.85;;
54123;SDS011;55741;53.252;5.788;2022-12-05T01:39:09;36.58;;;24.02;;
54123;SDS011;55741;53.252;5.788;2022-12-05T01:41:36;39.15;;;23.88;;
54123;SDS011;55741;53.252;5.788;2022-12-05T01:44:06;41.42;;;24.35;;
54123;SDS011;55741;53.252;5.788;2022-12-05T01:46:52;39.55;;;22.60;;
54123;SDS011;55741;53.252;5.788;2022-12-05T01:49:30;39.78;;;22.88;;
54123;SDS011;55741;53.252;5.788;2022-12-05T01:52:12;34.35;;;22.23;;
54123;SDS011;55741;53.252;5.788;2022-12-05T01:54:43;35.58;;;19.90;;
54123;SDS011;55741;53.252;5.788;2022-12-05T01:57:11;41.30;;;21.13;;
54123;SDS011;55741;53.252;5.788;2022-12-05T01:59:40;34.75;;;21.60;;
54123;SDS011;55741;53.252;5.788;2022-12-05T02:02:10;34.08;;;18.75;;
54123;SDS011;55741;53.252;5.788;2022-12-05T02:04:37;37.53;;;20.45;;
54123;SDS011;55741;53.252;5.788;2022-12-05T02:07:14;36.67;;;20.10;;
54123;SDS011;55741;53.252;5.788;2022-12-05T02:09:40;28.92;;;17.55;;
54123;SDS011;55741;53.252;5.788;2022-12-05T02:12:06;30.88;;;17.65;;
54123;SDS011;55741;53.252;5.788;2022-12-05T02:25:58;30.58;;;14.43;;
54123;SDS011;55741;53.252;5.788;2022-12-05T02:39:16;21.25;;;10.77;;
54123;SDS011;55741;53.252;5.788;2022-12-05T02:46:51;21.98;;;11.23;;
54123;SDS011;55741;53.252;5.788;2022-12-05T02:49:20;17.33;;;10.07;;
54123;SDS011;55741;53.252;5.788;2022-12-05T02:51:51;21.85;;;10.98;;
54123;SDS011;55741;53.252;5.788;2022-12-05T02:54:32;21.65;;;9.90;;
54123;SDS011;55741;53.252;5.788;2022-12-05T02:57:01;18.98;;;9.95;;
54123;SDS011;55741;53.252;5.788;2022-12-05T02:59:28;19.30;;;10.18;;
54123;SDS011;55741;53.252;5.788;2022-12-05T03:01:54;19.55;;;9.75;;
54123;SDS011;55741;53.252;5.788;2022-12-05T03:04:21;18.92;;;10.13;;
54123;SDS011;55741;53.252;5.788;2022-12-05T03:07:09;23.52;;;10.35;;
54123;SDS011;55741;53.252;5.788;2022-12-05T03:09:44;17.38;;;10.15;;
54123;SDS011;55741;53.252;5.788;2022-12-05T03:12:30;16.73;;;9.50;;
54123;SDS011;55741;53.252;5.788;2022-12-05T03:15:04;27.90;;;10.43;;
54123;SDS011;55741;53.252;5.788;2022-12-05T03:17:35;17.77;;;11.18;;
54123;SDS011;55741;53.252;5.788;2022-12-05T03:20:12;17.27;;;9.98;;
54123;SDS011;55741;53.252;5.788;2022-12-05T03:25:14;22.92;;;9.73;;
54123;SDS011;55741;53.252;5.788;2022-12-05T03:30:17;17.45;;;10.32;;
54123;SDS011;55741;53.252;5.788;2022-12-05T03:32:48;22.65;;;10.65;;
54123;SDS011;55741;53.252;5.788;2022-12-05T03:38:02;23.17;;;10.30;;
54123;SDS011;55741;53.252;5.788;2022-12-05T03:43:25;18.92;;;9.50;;
54123;SDS011;55741;53.252;5.788;2022-12-05T03:46:02;21.45;;;9.25;;
54123;SDS011;55741;53.252;5.788;2022-12-05T03:48:52;20.40;;;9.10;;
54123;SDS011;55741;53.252;5.788;2022-12-05T03:51:24;22.45;;;10.55;;
54123;SDS011;55741;53.252;5.788;2022-12-05T03:54:17;21.98;;;9.07;;
54123;SDS011;55741;53.252;5.788;2022-12-05T03:56:57;18.48;;;9.50;;
54123;SDS011;55741;53.252;5.788;2022-12-05T03:59:32;20.70;;;8.50;;
54123;SDS011;55741;53.252;5.788;2022-12-05T04:02:19;14.73;;;8.20;;
54123;SDS011;55741;53.252;5.788;2022-12-05T04:05:53;25.83;;;8.60;;
54123;SDS011;55741;53.252;5.788;2022-12-05T04:08:30;18.15;;;7.57;;
54123;SDS011;55741;53.252;5.788;2022-12-05T04:11:04;13.95;;;8.27;;
54123;SDS011;55741;53.252;5.788;2022-12-05T04:13:35;22.50;;;9.88;;
54123;SDS011;55741;53.252;5.788;2022-12-05T04:16:14;21.73;;;8.48;;
54123;SDS011;55741;53.252;5.788;2022-12-05T04:19:16;20.70;;;8.80;;
54123;SDS011;55741;53.252;5.788;2022-12-05T04:21:50;26.02;;;10.18;;
54123;SDS011;55741;53.252;5.788;2022-12-05T04:24:18;22.20;;;9.65;;
54123;SDS011;55741;53.252;5.788;2022-12-05T04:27:51;17.67;;;9.48;;
54123;SDS011;55741;53.252;5.788;2022-12-05T04:30:22;27.02;;;10.20;;
54123;SDS011;55741;53.252;5.788;2022-12-05T04:33:13;16.52;;;9.43;;
54123;SDS011;55741;53.252;5.788;2022-12-05T04:35:58;21.17;;;10.13;;
54123;SDS011;55741;53.252;5.788;2022-12-05T04:38:42;19.38;;;10.00;;
54123;SDS011;55741;53.252;5.788;2022-12-05T04:41:28;20.30;;;10.00;;
54123;SDS011;55741;53.252;5.788;2022-12-05T04:44:00;16.52;;;10.10;;
54123;SDS011;55741;53.252;5.788;2022-12-05T04:46:29;17.88;;;11.10;;
54123;SDS011;55741;53.252;5.788;2022-12-05T04:48:57;20.40;;;11.05;;
54123;SDS011;55741;53.252;5.788;2022-12-05T04:51:28;19.25;;;10.35;;
54123;SDS011;55741;53.252;5.788;2022-12-05T04:54:02;21.23;;;10.90;;
54123;SDS011;55741;53.252;5.788;2022-12-05T04:59:01;26.27;;;10.43;;
54123;SDS011;55741;53.252;5.788;2022-12-05T05:01:29;23.85;;;10.82;;
54123;SDS011;55741;53.252;5.788;2022-12-05T05:03:58;20.83;;;11.55;;
54123;SDS011;55741;53.252;5.788;2022-12-05T05:06:31;18.45;;;10.68;;
54123;SDS011;55741;53.252;5.788;2022-12-05T05:08:57;23.52;;;11.00;;
54123;SDS011;55741;53.252;5.788;2022-12-05T05:11:27;22.33;;;11.02;;
54123;SDS011;55741;53.252;5.788;2022-12-05T05:13:54;26.00;;;11.48;;
54123;SDS011;55741;53.252;5.788;2022-12-05T05:16:22;26.02;;;10.25;;
54123;SDS011;55741;53.252;5.788;2022-12-05T05:18:50;26.10;;;10.32;;
54123;SDS011;55741;53.252;5.788;2022-12-05T05:21:18;22.60;;;10.93;;
54123;SDS011;55741;53.252;5.788;2022-12-05T05:23:46;22.02;;;10.85;;
54123;SDS011;55741;53.252;5.788;2022-12-05T05:26:12;22.77;;;10.70;;
54123;SDS011;55741;53.252;5.788;2022-12-05T05:28:38;21.83;;;11.15;;
54123;SDS011;55741;53.252;5.788;2022-12-05T05:31:04;22.85;;;11.18;;
54123;SDS011;55741;53.252;5.788;2022-12-05T05:33:30;23.13;;;11.20;;
54123;SDS011;55741;53.252;5.788;2022-12-05T05:36:00;26.52;;;11.50;;
54123;SDS011;55741;53.252;5.788;2022-12-05T05:38:35;25.85;;;11.02;;
54123;SDS011;55741;53.252;5.788;2022-12-05T05:41:02;20.92;;;10.63;;
54123;SDS011;55741;53.252;5.788;2022-12-05T05:43:29;23.45;;;11.20;;
54123;SDS011;55741;53.252;5.788;2022-12-05T05:45:54;26.60;;;11.52;;
54123;SDS011;55741;53.252;5.788;2022-12-05T05:48:20;20.30;;;10.50;;
54123;SDS011;55741;53.252;5.788;2022-12-05T05:50:46;27.13;;;10.82;;
54123;SDS011;55741;53.252;5.788;2022-12-05T05:53:12;27.08;;;12.15;;
54123;SDS011;55741;53.252;5.788;2022-12-05T05:55:41;24.13;;;10.80;;
54123;SDS011;55741;53.252;5.788;2022-12-05T05:58:07;23.05;;;10.68;;
54123;SDS011;55741;53.252;5.788;2022-12-05T06:00:33;22.58;;;11.07;;
54123;SDS011;55741;53.252;5.788;2022-12-05T06:02:59;20.08;;;10.82;;
54123;SDS011;55741;53.252;5.788;2022-12-05T06:05:25;28.40;;;12.57;;
54123;SDS011;55741;53.252;5.788;2022-12-05T06:07:51;24.40;;;10.77;;
54123;SDS011;55741;53.252;5.788;2022-12-05T06:10:17;25.17;;;10.98;;
54123;SDS011;55741;53.252;5.788;2022-12-05T06:12:43;26.75;;;10.43;;
54123;SDS011;55741;53.252;5.788;2022-12-05T06:15:10;25.85;;;10.40;;
54123;SDS011;55741;53.252;5.788;2022-12-05T06:17:37;21.75;;;10.75;;
54123;SDS011;55741;53.252;5.788;2022-12-05T06:20:04;26.77;;;10.88;;
54123;SDS011;55741;53.252;5.788;2022-12-05T06:22:31;23.00;;;11.43;;
54123;SDS011;55741;53.252;5.788;2022-12-05T06:24:57;21.77;;;10.43;;
54123;SDS011;55741;53.252;5.788;2022-12-05T06:27:23;24.63;;;11.38;;
54123;SDS011;55741;53.252;5.788;2022-12-05T06:29:49;25.48;;;11.32;;
54123;SDS011;55741;53.252;5.788;2022-12-05T06:32:15;23.38;;;10.30;;
54123;SDS011;55741;53.252;5.788;2022-12-05T06:34:41;23.17;;;11.35;;
54123;SDS011;55741;53.252;5.788;2022-12-05T06:37:07;22.95;;;10.15;;
54123;SDS011;55741;53.252;5.788;2022-12-05T06:39:32;26.05;;;11.40;;
54123;SDS011;55741;53.252;5.788;2022-12-05T06:41:58;23.67;;;10.88;;
54123;SDS011;55741;53.252;5.788;2022-12-05T06:44:24;25.45;;;10.95;;
54123;SDS011;55741;53.252;5.788;2022-12-05T06:46:52;25.38;;;9.57;;
54123;SDS011;55741;53.252;5.788;2022-12-05T06:49:18;25.95;;;11.63;;
54123;SDS011;55741;53.252;5.788;2022-12-05T06:51:43;27.60;;;11.60;;
54123;SDS011;55741;53.252;5.788;2022-12-05T06:54:12;29.40;;;9.77;;
54123;SDS011;55741;53.252;5.788;2022-12-05T06:56:38;27.10;;;10.23;;
54123;SDS011;55741;53.252;5.788;2022-12-05T06:59:04;28.05;;;10.07;;
54123;SDS011;55741;53.252;5.788;2022-12-05T07:01:31;22.40;;;9.25;;
54123;SDS011;55741;53.252;5.788;2022-12-05T07:04:04;26.35;;;10.40;;
54123;SDS011;55741;53.252;5.788;2022-12-05T07:06:40;24.75;;;10.40;;
54123;SDS011;55741;53.252;5.788;2022-12-05T07:09:07;22.95;;;9.20;;
54123;SDS011;55741;53.252;5.788;2022-12-05T07:11:33;24.13;;;11.20;;
54123;SDS011;55741;53.252;5.788;2022-12-05T07:13:59;16.42;;;9.02;;
54123;SDS011;55741;53.252;5.788;2022-12-05T07:16:26;21.80;;;9.75;;
54123;SDS011;55741;53.252;5.788;2022-12-05T07:18:53;19.15;;;8.55;;
54123;SDS011;55741;53.252;5.788;2022-12-05T07:21:19;26.13;;;9.30;;
54123;SDS011;55741;53.252;5.788;2022-12-05T07:23:46;19.17;;;8.13;;
54123;SDS011;55741;53.252;5.788;2022-12-05T07:26:14;23.45;;;8.57;;
54123;SDS011;55741;53.252;5.788;2022-12-05T07:28:46;16.25;;;7.57;;
54123;SDS011;55741;53.252;5.788;2022-12-05T07:31:13;24.98;;;9.25;;
54123;SDS011;55741;53.252;5.788;2022-12-05T07:33:41;19.05;;;8.30;;
54123;SDS011;55741;53.252;5.788;2022-12-05T07:36:12;25.98;;;9.80;;
54123;SDS011;55741;53.252;5.788;2022-12-05T07:38:40;27.08;;;9.88;;
54123;SDS011;55741;53.252;5.788;2022-12-05T07:41:08;22.67;;;9.27;;
54123;SDS011;55741;53.252;5.788;2022-12-05T07:44:00;29.38;;;10.82;;
54123;SDS011;55741;53.252;5.788;2022-12-05T07:46:26;20.98;;;8.63;;
54123;SDS011;55741;53.252;5.788;2022-12-05T07:48:53;18.98;;;8.23;;
54123;SDS011;55741;53.252;5.788;2022-12-05T07:51:19;24.27;;;7.47;;
54123;SDS011;55741;53.252;5.788;2022-12-05T07:53:46;27.30;;;7.72;;
54123;SDS011;55741;53.252;5.788;2022-12-05T07:56:13;21.85;;;8.43;;
54123;SDS011;55741;53.252;5.788;2022-12-05T07:58:44;21.48;;;7.45;;
54123;SDS011;55741;53.252;5.788;2022-12-05T08:01:13;26.65;;;8.07;;
54123;SDS011;55741;53.252;5.788;2022-12-05T08:03:39;23.30;;;7.85;;
54123;SDS011;55741;53.252;5.788;2022-12-05T08:06:08;22.52;;;8.43;;
54123;SDS011;55741;53.252;5.788;2022-12-05T08:08:35;26.35;;;8.40;;
54123;SDS011;55741;53.252;5.788;2022-12-05T08:11:05;27.77;;;8.35;;
54123;SDS011;55741;53.252;5.788;2022-12-05T08:13:43;30.05;;;9.13;;
54123;SDS011;55741;53.252;5.788;2022-12-05T08:16:10;24.55;;;7.97;;
54123;SDS011;55741;53.252;5.788;2022-12-05T08:18:38;26.42;;;8.80;;
54123;SDS011;55741;53.252;5.788;2022-12-05T08:21:10;18.85;;;8.75;;
54123;SDS011;55741;53.252;5.788;2022-12-05T08:23:58;21.45;;;8.20;;
54123;SDS011;55741;53.252;5.788;2022-12-05T08:26:24;18.10;;;8.32;;
54123;SDS011;55741;53.252;5.788;2022-12-05T08:28:53;23.40;;;10.00;;
54123;SDS011;55741;53.252;5.788;2022-12-05T08:31:21;19.58;;;8.23;;
54123;SDS011;55741;53.252;5.788;2022-12-05T08:33:48;25.95;;;9.68;;
54123;SDS011;55741;53.252;5.788;2022-12-05T08:36:15;20.13;;;7.63;;
54123;SDS011;55741;53.252;5.788;2022-12-05T08:38:42;18.52;;;7.95;;
54123;SDS011;55741;53.252;5.788;2022-12-05T08:41:10;22.90;;;7.72;;
54123;SDS011;55741;53.252;5.788;2022-12-05T08:43:40;16.60;;;7.40;;
54123;SDS011;55741;53.252;5.788;2022-12-05T08:46:07;26.30;;;8.65;;
54123;SDS011;55741;53.252;5.788;2022-12-05T08:48:34;19.58;;;7.80;;
54123;SDS011;55741;53.252;5.788;2022-12-05T08:51:07;22.48;;;8.18;;
54123;SDS011;55741;53.252;5.788;2022-12-05T08:53:39;20.88;;;8.07;;
54123;SDS011;55741;53.252;5.788;2022-12-05T08:56:06;24.88;;;8.35;;
54123;SDS011;55741;53.252;5.788;2022-12-05T08:58:34;27.15;;;7.90;;
54123;SDS011;55741;53.252;5.788;2022-12-05T09:01:04;23.70;;;7.88;;
54123;SDS011;55741;53.252;5.788;2022-12-05T09:03:30;17.60;;;8.00;;
54123;SDS011;55741;53.252;5.788;2022-12-05T09:08:42;29.48;;;7.60;;
54123;SDS011;55741;53.252;5.788;2022-12-05T09:11:11;23.20;;;8.20;;
54123;SDS011;55741;53.252;5.788;2022-12-05T09:13:38;22.48;;;8.68;;
54123;SDS011;55741;53.252;5.788;2022-12-05T09:16:05;30.02;;;9.05;;
54123;SDS011;55741;53.252;5.788;2022-12-05T09:18:31;22.63;;;9.98;;
54123;SDS011;55741;53.252;5.788;2022-12-05T09:20:57;23.38;;;8.85;;
54123;SDS011;55741;53.252;5.788;2022-12-05T09:23:24;17.70;;;10.00;;
54123;SDS011;55741;53.252;5.788;2022-12-05T09:25:53;22.92;;;9.57;;
54123;SDS011;55741;53.252;5.788;2022-12-05T09:28:22;22.63;;;9.65;;
54123;SDS011;55741;53.252;5.788;2022-12-05T09:30:58;19.02;;;9.05;;
54123;SDS011;55741;53.252;5.788;2022-12-05T09:33:29;19.50;;;8.27;;
54123;SDS011;55741;53.252;5.788;2022-12-05T09:35:56;21.08;;;9.20;;
54123;SDS011;55741;53.252;5.788;2022-12-05T09:38:22;16.23;;;8.80;;
54123;SDS011;55741;53.252;5.788;2022-12-05T09:46:55;22.92;;;9.25;;
54123;SDS011;55741;53.252;5.788;2022-12-05T09:49:25;18.30;;;8.48;;
54123;SDS011;55741;53.252;5.788;2022-12-05T09:51:52;22.38;;;10.25;;
54123;SDS011;55741;53.252;5.788;2022-12-05T09:54:19;27.77;;;10.50;;
54123;SDS011;55741;53.252;5.788;2022-12-05T09:56:47;26.73;;;9.68;;
54123;SDS011;55741;53.252;5.788;2022-12-05T09:59:15;20.70;;;8.07;;
54123;SDS011;55741;53.252;5.788;2022-12-05T10:07:23;26.40;;;10.30;;
54123;SDS011;55741;53.252;5.788;2022-12-05T10:20:51;20.75;;;8.02;;
54123;SDS011;55741;53.252;5.788;2022-12-05T10:26:12;17.00;;;8.73;;
54123;SDS011;55741;53.252;5.788;2022-12-05T10:31:13;22.27;;;7.80;;
54123;SDS011;55741;53.252;5.788;2022-12-05T10:33:46;20.00;;;8.10;;
54123;SDS011;55741;53.252;5.788;2022-12-05T10:36:15;21.05;;;8.45;;
54123;SDS011;55741;53.252;5.788;2022-12-05T10:38:42;20.55;;;8.95;;
54123;SDS011;55741;53.252;5.788;2022-12-05T10:41:10;22.67;;;8.93;;
54123;SDS011;55741;53.252;5.788;2022-12-05T10:43:43;27.33;;;10.27;;
54123;SDS011;55741;53.252;5.788;2022-12-05T10:46:10;25.65;;;8.43;;
54123;SDS011;55741;53.252;5.788;2022-12-05T10:48:38;20.48;;;9.35;;
54123;SDS011;55741;53.252;5.788;2022-12-05T10:51:06;22.95;;;8.05;;
54123;SDS011;55741;53.252;5.788;2022-12-05T10:53:55;19.23;;;7.78;;
54123;SDS011;55741;53.252;5.788;2022-12-05T10:59:03;18.95;;;8.18;;
54123;SDS011;55741;53.252;5.788;2022-12-05T11:01:30;21.48;;;9.48;;
54123;SDS011;55741;53.252;5.788;2022-12-05T11:03:57;19.52;;;7.97;;
54123;SDS011;55741;53.252;5.788;2022-12-05T11:06:26;26.23;;;12.40;;
54123;SDS011;55741;53.252;5.788;2022-12-05T11:08:57;22.05;;;8.50;;
54123;SDS011;55741;53.252;5.788;2022-12-05T11:11:27;33.28;;;9.65;;
54123;SDS011;55741;53.252;5.788;2022-12-05T11:14:01;29.65;;;8.55;;
54123;SDS011;55741;53.252;5.788;2022-12-05T11:16:31;24.23;;;8.98;;
54123;SDS011;55741;53.252;5.788;2022-12-05T11:19:16;21.35;;;8.75;;
54123;SDS011;55741;53.252;5.788;2022-12-05T11:21:43;23.98;;;8.45;;
54123;SDS011;55741;53.252;5.788;2022-12-05T11:24:20;18.63;;;8.20;;
54123;SDS011;55741;53.252;5.788;2022-12-05T11:26:50;15.10;;;7.97;;
54123;SDS011;55741;53.252;5.788;2022-12-05T11:32:26;23.98;;;8.68;;
54123;SDS011;55741;53.252;5.788;2022-12-05T11:37:57;15.25;;;6.45;;
54123;SDS011;55741;53.252;5.788;2022-12-05T11:51:43;17.02;;;7.53;;
54123;SDS011;55741;53.252;5.788;2022-12-05T11:57:09;13.75;;;6.50;;
54123;SDS011;55741;53.252;5.788;2022-12-05T12:02:59;16.73;;;7.57;;
54123;SDS011;55741;53.252;5.788;2022-12-05T12:08:24;17.77;;;6.78;;
54123;SDS011;55741;53.252;5.788;2022-12-05T12:13:48;35.03;;;9.35;;
54123;SDS011;55741;53.252;5.788;2022-12-05T12:27:04;21.17;;;8.10;;
54123;SDS011;55741;53.252;5.788;2022-12-05T12:43:21;27.25;;;8.68;;
54123;SDS011;55741;53.252;5.788;2022-12-05T12:46:08;20.00;;;7.38;;
54123;SDS011;55741;53.252;5.788;2022-12-05T12:51:38;26.20;;;8.32;;
54123;SDS011;55741;53.252;5.788;2022-12-05T12:57:43;19.20;;;8.27;;
54123;SDS011;55741;53.252;5.788;2022-12-05T12:59:48;17.90;;;7.85;;
54123;SDS011;55741;53.252;5.788;2022-12-05T13:02:55;26.38;;;7.68;;
54123;SDS011;55741;53.252;5.788;2022-12-05T13:05:43;27.35;;;8.50;;
54123;SDS011;55741;53.252;5.788;2022-12-05T13:11:15;18.95;;;8.40;;
54123;SDS011;55741;53.252;5.788;2022-12-05T13:13:48;24.92;;;8.43;;
54123;SDS011;55741;53.252;5.788;2022-12-05T13:16:22;19.90;;;8.68;;
54123;SDS011;55741;53.252;5.788;2022-12-05T13:19:17;22.95;;;8.95;;
54123;SDS011;55741;53.252;5.788;2022-12-05T13:24:24;16.80;;;7.30;;
54123;SDS011;55741;53.252;5.788;2022-12-05T13:26:52;16.33;;;7.97;;
54123;SDS011;55741;53.252;5.788;2022-12-05T13:29:24;18.15;;;7.18;;
54123;SDS011;55741;53.252;5.788;2022-12-05T13:31:57;22.02;;;7.90;;
54123;SDS011;55741;53.252;5.788;2022-12-05T13:36:58;19.58;;;8.18;;
54123;SDS011;55741;53.252;5.788;2022-12-05T13:39:53;20.48;;;7.53;;
54123;SDS011;55741;53.252;5.788;2022-12-05T13:42:39;14.90;;;6.82;;
54123;SDS011;55741;53.252;5.788;2022-12-05T13:45:08;19.88;;;8.50;;
54123;SDS011;55741;53.252;5.788;2022-12-05T13:50:35;16.27;;;6.85;;
54123;SDS011;55741;53.252;5.788;2022-12-05T13:58:41;20.65;;;8.27;;
54123;SDS011;55741;53.252;5.788;2022-12-05T14:03:55;16.02;;;6.93;;
54123;SDS011;55741;53.252;5.788;2022-12-05T14:06:56;17.30;;;6.85;;
54123;SDS011;55741;53.252;5.788;2022-12-05T14:17:31;16.90;;;7.22;;
54123;SDS011;55741;53.252;5.788;2022-12-05T14:20:30;24.30;;;8.30;;
54123;SDS011;55741;53.252;5.788;2022-12-05T14:26:03;24.83;;;8.40;;
54123;SDS011;55741;53.252;5.788;2022-12-05T14:31:42;18.65;;;7.80;;
54123;SDS011;55741;53.252;5.788;2022-12-05T14:34:25;15.32;;;7.47;;
54123;SDS011;55741;53.252;5.788;2022-12-05T14:45:15;30.05;;;12.70;;
54123;SDS011;55741;53.252;5.788;2022-12-05T14:50:48;19.70;;;9.27;;
54123;SDS011;55741;53.252;5.788;2022-12-05T14:55:53;20.30;;;7.77;;
54123;SDS011;55741;53.252;5.788;2022-12-05T15:01:29;20.60;;;7.60;;
54123;SDS011;55741;53.252;5.788;2022-12-05T15:04:05;18.10;;;7.15;;
54123;SDS011;55741;53.252;5.788;2022-12-05T15:06:52;19.08;;;7.10;;
54123;SDS011;55741;53.252;5.788;2022-12-05T15:12:14;22.92;;;8.75;;
54123;SDS011;55741;53.252;5.788;2022-12-05T15:18:08;21.92;;;10.20;;
54123;SDS011;55741;53.252;5.788;2022-12-05T15:20:48;24.25;;;8.75;;
54123;SDS011;55741;53.252;5.788;2022-12-05T15:26:39;20.17;;;8.77;;
54123;SDS011;55741;53.252;5.788;2022-12-05T15:32:03;23.63;;;9.43;;
54123;SDS011;55741;53.252;5.788;2022-12-05T15:42:27;28.33;;;9.80;;
54123;SDS011;55741;53.252;5.788;2022-12-05T15:45:18;22.05;;;9.40;;
54123;SDS011;55741;53.252;5.788;2022-12-05T15:47:50;26.63;;;9.15;;
54123;SDS011;55741;53.252;5.788;2022-12-05T15:50:43;22.85;;;9.75;;
54123;SDS011;55741;53.252;5.788;2022-12-05T15:53:35;26.83;;;10.18;;
54123;SDS011;55741;53.252;5.788;2022-12-05T15:58:46;29.98;;;9.60;;
54123;SDS011;55741;53.252;5.788;2022-12-05T16:01:17;29.42;;;9.73;;
54123;SDS011;55741;53.252;5.788;2022-12-05T16:06:43;25.90;;;9.45;;
54123;SDS011;55741;53.252;5.788;2022-12-05T16:09:19;26.83;;;9.38;;
54123;SDS011;55741;53.252;5.788;2022-12-05T16:11:53;28.13;;;9.00;;
54123;SDS011;55741;53.252;5.788;2022-12-05T16:14:21;24.13;;;9.52;;
54123;SDS011;55741;53.252;5.788;2022-12-05T16:16:49;25.52;;;9.90;;
54123;SDS011;55741;53.252;5.788;2022-12-05T16:19:20;23.73;;;11.13;;
54123;SDS011;55741;53.252;5.788;2022-12-05T16:22:01;28.95;;;9.52;;
54123;SDS011;55741;53.252;5.788;2022-12-05T16:24:37;30.65;;;9.95;;
54123;SDS011;55741;53.252;5.788;2022-12-05T16:29:40;28.40;;;10.50;;
54123;SDS011;55741;53.252;5.788;2022-12-05T16:32:14;29.02;;;10.43;;
54123;SDS011;55741;53.252;5.788;2022-12-05T16:34:47;25.02;;;9.77;;
54123;SDS011;55741;53.252;5.788;2022-12-05T16:37:17;32.13;;;12.15;;
54123;SDS011;55741;53.252;5.788;2022-12-05T16:39:47;31.02;;;10.27;;
54123;SDS011;55741;53.252;5.788;2022-12-05T16:42:26;35.13;;;11.45;;
54123;SDS011;55741;53.252;5.788;2022-12-05T16:44:54;29.52;;;11.27;;
54123;SDS011;55741;53.252;5.788;2022-12-05T16:53:12;27.23;;;8.75;;
54123;SDS011;55741;53.252;5.788;2022-12-05T16:55:39;23.60;;;8.70;;
54123;SDS011;55741;53.252;5.788;2022-12-05T16:58:13;25.73;;;9.80;;
54123;SDS011;55741;53.252;5.788;2022-12-05T17:00:51;24.55;;;7.97;;
54123;SDS011;55741;53.252;5.788;2022-12-05T17:03:22;17.13;;;6.68;;
54123;SDS011;55741;53.252;5.788;2022-12-05T17:05:48;23.50;;;8.30;;
54123;SDS011;55741;53.252;5.788;2022-12-05T17:08:14;23.55;;;8.05;;
54123;SDS011;55741;53.252;5.788;2022-12-05T17:10:41;17.80;;;6.95;;
54123;SDS011;55741;53.252;5.788;2022-12-05T17:13:08;17.40;;;6.55;;
54123;SDS011;55741;53.252;5.788;2022-12-05T17:15:38;22.05;;;6.68;;
54123;SDS011;55741;53.252;5.788;2022-12-05T17:18:14;23.05;;;6.85;;
54123;SDS011;55741;53.252;5.788;2022-12-05T17:20:42;18.02;;;6.45;;
54123;SDS011;55741;53.252;5.788;2022-12-05T17:23:11;25.33;;;6.82;;
54123;SDS011;55741;53.252;5.788;2022-12-05T17:25:40;19.83;;;6.50;;
54123;SDS011;55741;53.252;5.788;2022-12-05T17:28:10;22.42;;;7.50;;
54123;SDS011;55741;53.252;5.788;2022-12-05T17:30:36;18.05;;;6.38;;
54123;SDS011;55741;53.252;5.788;2022-12-05T17:33:03;25.30;;;6.65;;
54123;SDS011;55741;53.252;5.788;2022-12-05T17:35:29;24.80;;;6.50;;
54123;SDS011;55741;53.252;5.788;2022-12-05T17:37:55;19.77;;;6.97;;
54123;SDS011;55741;53.252;5.788;2022-12-05T17:40:21;27.25;;;6.82;;
54123;SDS011;55741;53.252;5.788;2022-12-05T17:42:47;17.15;;;5.65;;
54123;SDS011;55741;53.252;5.788;2022-12-05T17:45:13;15.43;;;5.22;;
54123;SDS011;55741;53.252;5.788;2022-12-05T17:47:40;23.60;;;5.82;;
54123;SDS011;55741;53.252;5.788;2022-12-05T17:50:10;22.17;;;6.25;;
54123;SDS011;55741;53.252;5.788;2022-12-05T17:52:40;24.63;;;7.90;;
54123;SDS011;55741;53.252;5.788;2022-12-05T17:55:10;26.77;;;11.00;;
54123;SDS011;55741;53.252;5.788;2022-12-05T17:57:43;25.58;;;6.80;;
54123;SDS011;55741;53.252;5.788;2022-12-05T18:00:10;20.88;;;5.72;;
54123;SDS011;55741;53.252;5.788;2022-12-05T18:02:37;18.15;;;5.53;;
54123;SDS011;55741;53.252;5.788;2022-12-05T18:05:03;21.80;;;5.97;;
54123;SDS011;55741;53.252;5.788;2022-12-05T18:07:29;19.58;;;5.50;;
54123;SDS011;55741;53.252;5.788;2022-12-05T18:09:55;18.65;;;5.60;;
54123;SDS011;55741;53.252;5.788;2022-12-05T18:12:21;18.40;;;5.00;;
54123;SDS011;55741;53.252;5.788;2022-12-05T18:14:46;12.77;;;4.65;;
54123;SDS011;55741;53.252;5.788;2022-12-05T18:17:12;13.57;;;4.20;;
54123;SDS011;55741;53.252;5.788;2022-12-05T18:19:38;14.18;;;4.30;;
54123;SDS011;55741;53.252;5.788;2022-12-05T18:22:04;14.60;;;4.50;;
54123;SDS011;55741;53.252;5.788;2022-12-05T18:24:30;17.88;;;4.80;;
54123;SDS011;55741;53.252;5.788;2022-12-05T18:26:56;15.38;;;4.63;;
54123;SDS011;55741;53.252;5.788;2022-12-05T18:29:23;11.45;;;4.32;;
54123;SDS011;55741;53.252;5.788;2022-12-05T18:31:49;18.45;;;4.18;;